Time;durP1;ratioP1;P1;durP2;ratioP2;P2;SDS_P1;SDS_P2;PMS_P1;PMS_P2;Temp;Humidity;BMP_temperature;BMP_pressure;BME280_temperature;BME280_humidity;BME280_pressure;Samples;Min_cycle;Max_cycle;Signal;HPM_P1;HPM_P2
2024/02/13 00:01:50;;;;;;;0.00;0.00;;;;;;;11.00;58.17;99035.44;4210833;33;33212;-89
2024/02/13 00:04:20;;;;;;;0.60;0.60;;;;;;;11.07;57.41;99037.75;4211604;33;32773;-88
2024/02/13 00:06:49;;;;;;;0.47;0.47;;;;;;;11.09;57.66;99041.16;4223247;33;33604;-88
2024/02/13 00:09:17;;;;;;;0.35;0.35;;;;;;;10.98;57.82;99037.34;4209013;33;33738;-84
2024/02/13 00:11:46;;;;;;;0.73;0.73;;;;;;;10.96;57.75;99041.00;4222182;33;33985;-85
2024/02/13 00:14:14;;;;;;;0.20;0.20;;;;;;;11.12;57.19;99040.97;4201424;33;32922;-85
2024/02/13 00:16:44;;;;;;;0.30;0.10;;;;;;;11.12;57.28;99038.34;4200955;33;34389;-85
2024/02/13 00:19:12;;;;;;;0.43;0.30;;;;;;;11.24;57.14;99040.25;4212430;33;33807;-84
2024/02/13 00:21:40;;;;;;;0.55;0.55;;;;;;;11.17;57.19;99050.34;4234823;33;33745;-85
2024/02/13 00:24:08;;;;;;;0.10;0.10;;;;;;;11.18;57.09;99049.41;4222181;33;34650;-86
2024/02/13 00:26:38;;;;;;;0.32;0.32;;;;;;;11.28;56.70;99055.00;4212961;33;33387;-86
2024/02/13 00:29:06;;;;;;;0.15;0.10;;;;;;;11.10;57.74;99058.69;4206063;33;33214;-86
2024/02/13 00:31:34;;;;;;;1.15;0.57;;;;;;;10.68;59.44;99070.75;4194415;33;32839;-86
2024/02/13 00:34:22;;;;;;;2.60;1.37;;;;;;;10.87;58.42;99060.88;4203306;33;33256;-85
2024/02/13 00:36:50;;;;;;;0.30;0.30;;;;;;;11.06;58.16;99071.22;4210083;33;32637;-86
2024/02/13 00:39:18;;;;;;;0.75;0.60;;;;;;;11.11;57.58;99073.59;4209991;33;33926;-86
2024/02/13 00:41:47;;;;;;;0.10;0.10;;;;;;;10.70;59.32;99079.47;4225215;33;34431;-86
2024/02/13 00:44:15;;;;;;;0.00;0.00;;;;;;;10.64;59.83;99074.53;4217100;33;33756;-86
2024/02/13 00:46:43;;;;;;;0.88;0.68;;;;;;;11.10;58.08;99072.75;4224966;33;34696;-88
2024/02/13 00:49:11;;;;;;;0.10;0.10;;;;;;;10.95;58.65;99079.78;4214273;33;33551;-88
2024/02/13 00:51:41;;;;;;;0.70;0.20;;;;;;;10.70;59.67;99080.31;4203663;33;33129;-88
2024/02/13 00:54:13;;;;;;;0.15;0.15;;;;;;;10.72;59.43;99082.84;4200535;33;33426;-87
2024/02/13 00:56:41;;;;;;;0.10;0.10;;;;;;;10.95;58.78;99090.34;4212890;33;33346;-87
2024/02/13 00:59:09;;;;;;;8.23;1.45;;;;;;;10.85;59.12;99091.78;4202422;33;32843;-87
2024/02/13 01:01:37;;;;;;;0.08;0.08;;;;;;;10.72;59.50;99094.25;4238120;33;33941;-87
2024/02/13 01:04:08;;;;;;;0.15;0.15;;;;;;;10.71;59.77;99102.28;4213344;33;33248;-87
2024/02/13 01:06:36;;;;;;;0.35;0.35;;;;;;;11.22;57.89;99089.72;4229307;33;31780;-87
2024/02/13 01:09:05;;;;;;;0.30;0.30;;;;;;;11.05;58.31;99095.09;4201446;33;33214;-87
2024/02/13 01:11:35;;;;;;;0.47;0.47;;;;;;;10.83;59.08;99100.75;4219595;33;34744;-84
2024/02/13 01:14:04;;;;;;;0.15;0.15;;;;;;;10.97;58.79;99099.03;4221791;33;32818;-84
2024/02/13 01:16:31;;;;;;;0.10;0.10;;;;;;;10.89;58.59;99109.19;4212532;33;32999;-83
2024/02/13 01:19:00;;;;;;;0.10;0.10;;;;;;;10.64;59.48;99111.50;4222787;33;34161;-84
2024/02/13 01:21:30;;;;;;;3.10;0.75;;;;;;;10.56;59.95;99105.75;4187203;34;32890;-84
2024/02/13 01:23:58;;;;;;;0.20;0.10;;;;;;;10.78;59.00;99108.94;4235421;33;34236;-84
2024/02/13 01:26:28;;;;;;;1.42;0.73;;;;;;;10.68;59.47;99102.44;4189125;33;32440;-84
2024/02/13 01:28:56;;;;;;;0.43;0.43;;;;;;;10.66;59.85;99115.72;4212423;33;33274;-83
2024/02/13 01:31:23;;;;;;;0.35;0.35;;;;;;;10.54;60.51;99112.91;4214103;33;34179;-83
2024/02/13 01:33:51;;;;;;;0.13;0.13;;;;;;;10.66;59.69;99117.53;4234756;33;34169;-83
2024/02/13 01:36:19;;;;;;;0.10;0.10;;;;;;;10.12;61.56;99123.00;4197939;33;33111;-83
2024/02/13 01:38:48;;;;;;;0.57;0.57;;;;;;;10.38;60.25;99121.66;4213399;33;33943;-82
2024/02/13 01:41:16;;;;;;;0.57;0.57;;;;;;;10.62;59.74;99126.53;4198990;33;32381;-83
2024/02/13 01:43:46;;;;;;;1.55;0.60;;;;;;;10.67;59.94;99120.06;4224566;33;33522;-83
2024/02/13 01:46:16;;;;;;;0.00;0.00;;;;;;;10.75;59.53;99120.50;4201039;33;34354;-83
2024/02/13 01:48:43;;;;;;;0.22;0.22;;;;;;;10.47;60.17;99123.78;4223518;33;33545;-83
2024/02/13 01:51:13;;;;;;;0.65;0.65;;;;;;;10.51;60.26;99122.69;4201845;33;35425;-82
2024/02/13 01:53:41;;;;;;;0.00;0.00;;;;;;;10.56;60.09;99129.53;4211066;33;34826;-83
2024/02/13 01:56:09;;;;;;;0.43;0.40;;;;;;;10.76;58.94;99132.75;4202090;33;31958;-83
2024/02/13 01:58:38;;;;;;;0.00;0.00;;;;;;;10.73;59.13;99137.38;4195796;33;34000;-83
2024/02/13 02:01:08;;;;;;;0.47;0.47;;;;;;;10.81;58.61;99139.59;4213190;33;34028;-82
2024/02/13 02:03:37;;;;;;;0.10;0.10;;;;;;;10.93;58.26;99138.91;4224570;33;34086;-83
2024/02/13 02:06:05;;;;;;;0.35;0.35;;;;;;;11.06;57.93;99147.00;4225771;33;33706;-84
2024/02/13 02:08:36;;;;;;;0.10;0.10;;;;;;;10.80;58.66;99149.31;4214005;33;33896;-86
2024/02/13 02:11:05;;;;;;;0.80;0.80;;;;;;;10.58;59.68;99154.03;4211717;33;33335;-85
2024/02/13 02:13:32;;;;;;;12.02;0.77;;;;;;;10.76;59.11;99156.53;4190913;33;34554;-86
2024/02/13 02:16:07;;;;;;;1.12;0.68;;;;;;;10.24;60.42;99155.84;4201254;33;33547;-85
2024/02/13 02:18:35;;;;;;;0.13;0.13;;;;;;;10.35;60.78;99163.19;4210922;33;33368;-85
2024/02/13 02:21:03;;;;;;;0.35;0.17;;;;;;;10.31;60.61;99156.38;4214070;33;34199;-84
2024/02/13 02:23:34;;;;;;;0.00;0.00;;;;;;;10.44;60.15;99166.22;4213328;33;34027;-84
2024/02/13 02:26:10;;;;;;;0.37;0.37;;;;;;;10.17;60.83;99160.56;4202745;33;33866;-85
2024/02/13 02:28:58;;;;;;;0.20;0.20;;;;;;;10.75;58.78;99167.19;4225945;33;34764;-86
2024/02/13 02:31:26;;;;;;;0.10;0.10;;;;;;;10.94;58.23;99167.88;4222672;33;33790;-85
2024/02/13 02:33:55;;;;;;;0.28;0.28;;;;;;;10.39;60.19;99170.84;4224653;33;34223;-86
2024/02/13 02:36:23;;;;;;;0.00;0.00;;;;;;;10.56;59.74;99171.75;4202717;33;32813;-84
2024/02/13 02:38:51;;;;;;;1.42;0.55;;;;;;;10.32;60.27;99172.13;4211201;33;33091;-84
2024/02/13 02:41:21;;;;;;;0.15;0.15;;;;;;;9.75;62.54;99169.72;4202227;33;33666;-85
2024/02/13 02:43:49;;;;;;;0.00;0.00;;;;;;;9.57;63.77;99177.72;4212871;33;34131;-84
2024/02/13 02:46:17;;;;;;;0.10;0.10;;;;;;;9.87;63.00;99167.41;4202424;33;33981;-84
2024/02/13 02:48:45;;;;;;;0.40;0.40;;;;;;;9.87;61.97;99170.87;4217787;33;33214;-86
2024/02/13 02:51:12;;;;;;;0.45;0.45;;;;;;;9.74;62.84;99175.94;4189540;33;33553;-85
2024/02/13 02:53:40;;;;;;;0.10;0.10;;;;;;;10.01;61.60;99180.72;4201708;33;32958;-84
2024/02/13 02:56:11;;;;;;;0.10;0.10;;;;;;;9.96;61.92;99178.31;4200957;33;32091;-85
2024/02/13 02:58:38;;;;;;;0.65;0.65;;;;;;;9.92;61.77;99176.81;4202781;33;32309;-84
2024/02/13 03:01:07;;;;;;;0.20;0.20;;;;;;;10.10;61.46;99182.03;4212599;33;34547;-85
2024/02/13 03:03:35;;;;;;;1.15;1.05;;;;;;;9.96;61.97;99188.03;4223386;33;32957;-85
2024/02/13 03:06:05;;;;;;;1.67;1.23;;;;;;;10.06;61.23;99189.25;4212589;33;33539;-85
2024/02/13 03:08:34;;;;;;;0.10;0.00;;;;;;;9.92;61.74;99187.34;4203223;33;33429;-86
2024/02/13 03:11:01;;;;;;;0.10;0.10;;;;;;;10.00;61.45;99200.13;4225280;33;33216;-85
2024/02/13 03:13:29;;;;;;;0.90;0.20;;;;;;;9.90;62.22;99199.75;4223260;33;34208;-86
2024/02/13 03:15:57;;;;;;;0.17;0.17;;;;;;;9.93;62.43;99198.75;4223848;33;34219;-86
2024/02/13 03:18:24;;;;;;;0.00;0.00;;;;;;;9.89;61.88;99202.47;4201658;33;33983;-86
2024/02/13 03:20:52;;;;;;;0.05;0.05;;;;;;;9.77;62.21;99211.84;4212149;33;32961;-86
2024/02/13 03:23:20;;;;;;;0.50;0.50;;;;;;;9.73;63.05;99212.91;4212084;33;34183;-86
2024/02/13 03:25:48;;;;;;;0.17;0.17;;;;;;;9.37;64.04;99216.44;4222666;33;33798;-85
2024/02/13 03:28:36;;;;;;;1.20;0.75;;;;;;;9.52;63.45;99229.78;4214957;33;34539;-86
2024/02/13 03:31:04;;;;;;;0.35;0.10;;;;;;;9.76;62.93;99228.59;4213153;33;32990;-85
2024/02/13 03:33:32;;;;;;;2.28;1.10;;;;;;;9.35;63.90;99241.13;4198753;33;33839;-85
2024/02/13 03:36:00;;;;;;;0.10;0.10;;;;;;;9.06;65.42;99247.75;4224666;33;33986;-84
2024/02/13 03:38:29;;;;;;;0.30;0.30;;;;;;;9.16;65.08;99247.28;4234353;33;34650;-84
2024/02/13 03:40:56;;;;;;;0.15;0.15;;;;;;;9.45;63.69;99245.91;4206444;33;31804;-86
2024/02/13 03:43:24;;;;;;;0.10;0.10;;;;;;;9.27;64.42;99256.47;4200791;33;34058;-84
2024/02/13 03:45:53;;;;;;;1.23;0.55;;;;;;;9.38;64.51;99262.91;4189419;33;33809;-85
2024/02/13 03:48:21;;;;;;;0.10;0.10;;;;;;;9.32;64.32;99260.59;4199671;33;35004;-85
2024/02/13 03:50:49;;;;;;;0.30;0.20;;;;;;;9.66;63.22;99259.81;4194115;33;33257;-84
2024/02/13 03:53:17;;;;;;;0.80;0.80;;;;;;;9.77;62.27;99261.06;4210502;33;33085;-84
2024/02/13 03:55:45;;;;;;;0.10;0.10;;;;;;;9.78;62.24;99263.66;4235870;33;32951;-84
2024/02/13 03:58:13;;;;;;;0.43;0.43;;;;;;;9.87;61.58;99267.59;4211558;33;33910;-83
2024/02/13 04:00:41;;;;;;;0.10;0.10;;;;;;;9.64;62.99;99266.97;4223127;33;34259;-84
2024/02/13 04:03:11;;;;;;;0.00;0.00;;;;;;;9.38;63.65;99276.09;4211280;33;33768;-84
2024/02/13 04:05:39;;;;;;;0.00;0.00;;;;;;;9.71;62.88;99273.62;4199006;33;33032;-84
2024/02/13 04:08:07;;;;;;;1.15;0.70;;;;;;;9.98;61.83;99284.63;4213719;33;32301;-84
2024/02/13 04:10:35;;;;;;;0.22;0.22;;;;;;;10.30;60.54;99281.31;4213476;33;32848;-84
2024/02/13 04:13:06;;;;;;;1.65;1.27;;;;;;;10.21;60.75;99295.81;4221147;33;33585;-83
2024/02/13 04:15:35;;;;;;;0.37;0.37;;;;;;;10.08;61.19;99297.34;4212969;33;34426;-84
2024/02/13 04:18:07;;;;;;;0.20;0.20;;;;;;;9.62;62.68;99297.78;4234566;33;33534;-84
2024/02/13 04:20:38;;;;;;;0.00;0.00;;;;;;;9.52;63.28;99308.84;4224296;33;33873;-83
2024/02/13 04:23:06;;;;;;;0.00;0.00;;;;;;;9.65;62.69;99310.00;4199983;33;33064;-83
2024/02/13 04:25:35;;;;;;;0.13;0.13;;;;;;;9.60;63.00;99314.63;4225276;33;34307;-83
2024/02/13 04:28:03;;;;;;;0.13;0.13;;;;;;;9.73;62.93;99303.44;4213801;33;32718;-83
2024/02/13 04:30:32;;;;;;;0.10;0.10;;;;;;;9.55;63.46;99319.25;4212320;33;33667;-85
2024/02/13 04:33:00;;;;;;;0.52;0.52;;;;;;;9.09;64.67;99319.59;4211644;33;34576;-86
2024/02/13 04:35:28;;;;;;;0.73;0.73;;;;;;;9.36;63.89;99317.47;4223998;33;33718;-86
2024/02/13 04:37:56;;;;;;;0.25;0.25;;;;;;;9.55;62.72;99317.47;4214653;33;34292;-86
2024/02/13 04:40:23;;;;;;;0.05;0.05;;;;;;;9.73;62.28;99311.34;4212169;33;33671;-87
2024/02/13 04:43:10;;;;;;;0.10;0.10;;;;;;;9.33;63.38;99314.97;4206480;33;32921;-85
2024/02/13 04:45:37;;;;;;;0.30;0.28;;;;;;;9.44;63.49;99323.22;4203035;33;33384;-85
2024/02/13 04:48:07;;;;;;;0.08;0.08;;;;;;;9.54;63.05;99320.16;4218636;33;33546;-86
2024/02/13 04:50:35;;;;;;;0.10;0.10;;;;;;;9.31;63.73;99326.53;4226263;33;33954;-85
2024/02/13 04:53:03;;;;;;;0.10;0.10;;;;;;;9.43;63.03;99329.44;4210730;33;34450;-84
2024/02/13 04:55:32;;;;;;;0.10;0.10;;;;;;;9.37;63.47;99337.63;4202154;33;33276;-85
2024/02/13 04:58:01;;;;;;;0.10;0.10;;;;;;;9.46;62.90;99334.56;4202330;33;33037;-85
2024/02/13 05:00:35;;;;;;;0.45;0.28;;;;;;;9.25;63.79;99332.91;4238254;33;33864;-86
2024/02/13 05:03:06;;;;;;;4.87;0.65;;;;;;;9.38;63.30;99334.06;4203450;33;34600;-85
2024/02/13 05:08:21;;;;;;;0.45;0.45;;;;;;;9.45;62.86;99343.41;4215649;33;34525;-83
2024/02/13 05:10:49;;;;;;;0.15;0.15;;;;;;;9.21;63.67;99347.19;4222508;33;32699;-83
2024/02/13 05:13:18;;;;;;;0.40;0.40;;;;;;;9.28;63.91;99353.00;4212263;33;33192;-83
2024/02/13 05:15:46;;;;;;;0.75;0.75;;;;;;;9.22;63.87;99355.00;4234842;33;34029;-84
2024/02/13 05:18:14;;;;;;;0.25;0.25;;;;;;;9.23;64.16;99355.84;4214307;33;33499;-84
2024/02/13 05:20:43;;;;;;;0.37;0.37;;;;;;;9.30;63.20;99357.25;4224961;33;34705;-84
2024/02/13 05:23:11;;;;;;;0.30;0.30;;;;;;;9.27;63.80;99367.97;4213133;33;33107;-84
2024/02/13 05:25:39;;;;;;;0.10;0.10;;;;;;;9.52;62.59;99366.84;4225476;33;33482;-84
2024/02/13 05:28:07;;;;;;;0.40;0.40;;;;;;;9.34;62.49;99369.37;4234880;33;33756;-85
2024/02/13 05:30:36;;;;;;;0.17;0.17;;;;;;;9.57;62.49;99380.66;4216012;33;33879;-85
2024/02/13 05:33:04;;;;;;;0.20;0.20;;;;;;;9.22;64.05;99396.28;4223365;33;31262;-84
2024/02/13 05:35:32;;;;;;;0.32;0.30;;;;;;;9.39;63.29;99398.16;4224501;33;32728;-83
2024/02/13 05:38:00;;;;;;;1.05;1.05;;;;;;;9.33;63.28;99396.66;4225184;33;34550;-85
2024/02/13 05:40:29;;;;;;;0.30;0.20;;;;;;;9.23;63.49;99400.63;4201487;33;34725;-85
2024/02/13 05:42:57;;;;;;;0.17;0.17;;;;;;;9.49;62.85;99410.88;4223310;33;34175;-84
2024/02/13 05:45:25;;;;;;;1.35;0.65;;;;;;;9.57;62.48;99399.97;4201427;33;33371;-84
2024/02/13 05:47:58;;;;;;;0.80;0.80;;;;;;;9.88;61.41;99407.31;4223603;33;34710;-84
2024/02/13 05:50:26;;;;;;;0.20;0.20;;;;;;;10.08;60.63;99409.00;4226294;33;33948;-85
2024/02/13 05:52:54;;;;;;;0.62;0.62;;;;;;;9.66;61.78;99425.03;4212973;33;34107;-85
2024/02/13 05:55:22;;;;;;;7.87;1.45;;;;;;;9.28;62.76;99422.34;4199525;33;33192;-84
2024/02/13 05:57:51;;;;;;;0.80;0.75;;;;;;;9.49;62.63;99423.16;4210946;33;33119;-84
2024/02/13 06:00:19;;;;;;;2.00;1.08;;;;;;;9.57;62.02;99423.69;4214516;33;33066;-83
2024/02/13 06:02:47;;;;;;;0.00;0.00;;;;;;;10.06;60.38;99425.81;4206050;33;34622;-83
2024/02/13 06:05:15;;;;;;;0.00;0.00;;;;;;;9.75;60.89;99428.13;4230399;33;33043;-85
2024/02/13 06:07:44;;;;;;;0.30;0.30;;;;;;;9.52;62.00;99443.28;4217817;33;32884;-84
2024/02/13 06:10:12;;;;;;;0.00;0.00;;;;;;;9.59;61.89;99442.94;4200246;33;33247;-82
2024/02/13 06:12:39;;;;;;;0.52;0.52;;;;;;;9.55;62.02;99456.31;4213164;33;34770;-84
2024/02/13 06:15:08;;;;;;;0.28;0.28;;;;;;;9.71;61.72;99455.53;4204245;33;33393;-83
2024/02/13 06:17:38;;;;;;;0.28;0.28;;;;;;;9.72;61.12;99459.87;4217211;33;32440;-84
2024/02/13 06:20:08;;;;;;;0.20;0.20;;;;;;;9.26;62.85;99471.62;4206822;33;32740;-83
2024/02/13 06:22:36;;;;;;;0.47;0.47;;;;;;;9.21;63.00;99478.88;4222614;33;33575;-83
2024/02/13 06:25:05;;;;;;;0.43;0.43;;;;;;;9.09;63.38;99474.13;4213660;33;33726;-84
2024/02/13 06:27:35;;;;;;;0.22;0.22;;;;;;;9.14;63.78;99477.44;4213802;33;32790;-84
2024/02/13 06:30:03;;;;;;;0.65;0.65;;;;;;;9.12;63.63;99480.13;4211550;33;33279;-84
2024/02/13 06:32:34;;;;;;;0.98;0.35;;;;;;;9.09;63.84;99484.66;4204496;33;32921;-84
2024/02/13 06:35:03;;;;;;;0.08;0.08;;;;;;;9.41;63.15;99486.78;4201986;33;33550;-84
2024/02/13 06:37:34;;;;;;;0.10;0.10;;;;;;;9.51;62.63;99491.63;4203541;33;33290;-84
2024/02/13 06:40:02;;;;;;;0.35;0.35;;;;;;;9.75;61.78;99490.53;4215545;33;31972;-84
2024/02/13 06:42:31;;;;;;;0.90;0.80;;;;;;;9.43;63.11;99505.13;4210862;33;33160;-85
2024/02/13 06:44:59;;;;;;;0.45;0.45;;;;;;;9.49;62.73;99505.75;4220991;33;32446;-84
2024/02/13 06:47:26;;;;;;;0.20;0.20;;;;;;;9.34;63.55;99516.94;4212941;33;32005;-83
2024/02/13 06:49:55;;;;;;;0.32;0.30;;;;;;;9.51;62.73;99518.00;4211967;33;34848;-83
2024/02/13 06:52:22;;;;;;;0.10;0.10;;;;;;;9.13;64.05;99518.72;4224666;33;34796;-83
2024/02/13 06:54:50;;;;;;;0.68;0.68;;;;;;;8.86;64.72;99522.50;4213043;33;34460;-82
2024/02/13 06:57:18;;;;;;;0.00;0.00;;;;;;;9.28;63.50;99521.63;4226426;33;33867;-83
2024/02/13 06:59:46;;;;;;;0.30;0.28;;;;;;;9.29;63.54;99526.81;4200373;33;34498;-83
2024/02/13 07:02:14;;;;;;;0.20;0.20;;;;;;;9.19;63.96;99525.50;4225416;33;33788;-82
2024/02/13 07:04:42;;;;;;;0.10;0.10;;;;;;;9.21;63.63;99521.03;4213296;33;33871;-82
2024/02/13 07:07:10;;;;;;;0.98;0.88;;;;;;;9.32;63.56;99529.34;4212284;33;33356;-83
2024/02/13 07:09:58;;;;;;;0.88;0.88;;;;;;;9.27;63.06;99533.09;4213494;33;34837;-82
2024/02/13 07:12:26;;;;;;;0.47;0.47;;;;;;;9.81;61.93;99527.16;4200849;33;33796;-82
2024/02/13 07:14:54;;;;;;;0.52;0.52;;;;;;;9.51;62.92;99529.37;4224098;33;34262;-82
2024/02/13 07:17:23;;;;;;;0.10;0.10;;;;;;;9.81;61.33;99518.41;4207583;33;32575;-82
2024/02/13 07:19:51;;;;;;;0.70;0.70;;;;;;;9.29;63.54;99524.19;4200671;33;34011;-82
2024/02/13 07:22:19;;;;;;;0.17;0.17;;;;;;;9.39;63.19;99530.75;4224543;33;34887;-82
2024/02/13 07:24:48;;;;;;;1.08;1.08;;;;;;;9.46;63.20;99531.38;4225257;33;33297;-82
2024/02/13 07:27:16;;;;;;;0.93;0.85;;;;;;;9.64;61.92;99537.63;4204027;33;33265;-82
2024/02/13 07:29:44;;;;;;;0.25;0.25;;;;;;;9.05;64.74;99543.66;4215062;33;33904;-82
2024/02/13 07:32:13;;;;;;;0.30;0.30;;;;;;;9.69;62.12;99533.00;4224357;33;34246;-82
2024/02/13 07:34:42;;;;;;;0.68;0.55;;;;;;;10.09;61.20;99525.91;4210307;33;33301;-82
2024/02/13 07:37:10;;;;;;;0.10;0.10;;;;;;;9.86;61.39;99535.72;4224647;33;33490;-82
2024/02/13 07:39:38;;;;;;;0.15;0.15;;;;;;;9.83;61.73;99535.87;4212143;33;34690;-82
2024/02/13 07:42:07;;;;;;;0.88;0.75;;;;;;;9.72;62.39;99543.41;4225354;33;33348;-83
2024/02/13 07:44:36;;;;;;;0.00;0.00;;;;;;;9.45;63.26;99543.69;4235897;33;33368;-83
2024/02/13 07:47:04;;;;;;;3.15;0.85;;;;;;;9.84;62.16;99542.88;4211845;33;33389;-83
2024/02/13 07:49:33;;;;;;;0.37;0.37;;;;;;;9.67;62.92;99555.94;4211797;33;34794;-82
2024/02/13 07:52:02;;;;;;;0.13;0.13;;;;;;;9.57;63.13;99554.62;4223737;33;34068;-82
2024/02/13 07:54:30;;;;;;;0.43;0.43;;;;;;;9.92;62.35;99559.22;4199834;33;33397;-83
2024/02/13 07:56:58;;;;;;;0.73;0.68;;;;;;;9.55;63.39;99567.03;4215728;33;34615;-82
2024/02/13 07:59:25;;;;;;;1.20;0.95;;;;;;;9.47;63.70;99556.78;4211548;33;33331;-82
2024/02/13 08:01:54;;;;;;;0.43;0.43;;;;;;;10.05;61.55;99548.09;4211045;33;32619;-82
2024/02/13 08:04:22;;;;;;;0.75;0.75;;;;;;;9.85;63.00;99547.22;4199102;33;33143;-83
2024/02/13 08:06:50;;;;;;;0.37;0.37;;;;;;;10.37;61.11;99541.34;4224069;33;34870;-82
2024/02/13 08:09:19;;;;;;;0.35;0.35;;;;;;;10.35;60.77;99537.91;4235728;33;33630;-82
2024/02/13 08:11:47;;;;;;;0.10;0.10;;;;;;;10.18;61.93;99543.97;4211867;33;33850;-83
2024/02/13 08:14:15;;;;;;;0.95;0.95;;;;;;;10.13;61.98;99553.88;4224949;33;34024;-82
2024/02/13 08:16:43;;;;;;;0.30;0.30;;;;;;;10.21;61.46;99564.94;4221955;33;33307;-82
2024/02/13 08:19:12;;;;;;;2.65;1.48;;;;;;;10.60;60.18;99559.63;4213316;33;34316;-83
2024/02/13 08:21:47;;;;;;;2.83;0.77;;;;;;;10.86;59.51;99570.69;4214874;33;34816;-82
2024/02/13 08:24:15;;;;;;;2.40;0.80;;;;;;;10.83;59.54;99569.06;4225374;33;33336;-82
2024/02/13 08:26:45;;;;;;;0.13;0.13;;;;;;;10.93;59.20;99577.41;4199961;33;33944;-83
2024/02/13 08:29:13;;;;;;;0.25;0.25;;;;;;;11.14;58.39;99575.47;4216195;33;33365;-83
2024/02/13 08:31:41;;;;;;;0.28;0.28;;;;;;;10.80;59.36;99582.41;4214051;33;34116;-82
2024/02/13 08:34:09;;;;;;;2.50;0.93;;;;;;;11.03;58.80;99579.50;4225391;33;32680;-83
2024/02/13 08:36:38;;;;;;;1.58;1.17;;;;;;;10.96;59.29;99583.38;4223281;33;33787;-83
2024/02/13 08:39:07;;;;;;;0.43;0.43;;;;;;;10.73;59.40;99591.56;4223191;33;33243;-83
2024/02/13 08:41:36;;;;;;;0.03;0.03;;;;;;;11.12;57.53;99593.22;4203373;33;33970;-83
2024/02/13 08:44:04;;;;;;;0.15;0.15;;;;;;;11.34;56.16;99604.41;4203341;33;33649;-83
2024/02/13 08:46:33;;;;;;;1.95;0.75;;;;;;;11.36;56.36;99601.72;4215069;33;33977;-83
2024/02/13 08:49:00;;;;;;;0.65;0.65;;;;;;;11.54;56.25;99603.44;4223040;33;34640;-83
2024/02/13 08:51:30;;;;;;;0.40;0.40;;;;;;;11.64;55.00;99601.19;4223469;33;35002;-83
2024/02/13 08:54:04;;;;;;;1.00;0.50;;;;;;;11.30;56.30;99608.16;4221448;33;34389;-83
2024/02/13 08:56:33;;;;;;;0.03;0.03;;;;;;;11.87;54.25;99603.53;4225911;33;33781;-83
2024/02/13 08:59:03;;;;;;;1.25;0.70;;;;;;;11.90;54.33;99602.50;4211198;33;33004;-83
2024/02/13 09:01:31;;;;;;;0.15;0.15;;;;;;;12.00;54.55;99612.50;4221496;33;32874;-83
2024/02/13 09:04:00;;;;;;;0.40;0.35;;;;;;;11.54;55.91;99612.22;4214645;33;32801;-83
2024/02/13 09:06:28;;;;;;;1.05;1.05;;;;;;;12.13;53.76;99617.16;4211063;33;33808;-83
2024/02/13 09:08:56;;;;;;;0.57;0.57;;;;;;;12.14;53.46;99614.44;4213395;33;33942;-83
2024/02/13 09:11:26;;;;;;;0.55;0.55;;;;;;;12.40;51.76;99610.41;4199950;33;34029;-83
2024/02/13 09:13:54;;;;;;;4.57;0.85;;;;;;;11.89;53.17;99629.91;4214411;33;33556;-83
2024/02/13 09:16:22;;;;;;;0.80;0.80;;;;;;;11.60;53.89;99629.56;4215386;33;34547;-83
2024/02/13 09:18:53;;;;;;;0.13;0.10;;;;;;;11.97;53.01;99631.22;4215324;33;33734;-83
2024/02/13 09:21:21;;;;;;;0.70;0.60;;;;;;;12.15;52.66;99634.66;4203833;33;34521;-83
2024/02/13 09:23:49;;;;;;;0.45;0.45;;;;;;;11.54;54.21;99638.66;4190105;33;32576;-83
2024/02/13 09:26:17;;;;;;;2.05;1.62;;;;;;;12.11;52.20;99648.16;4235638;33;33805;-83
2024/02/13 09:28:45;;;;;;;1.02;1.00;;;;;;;12.41;51.11;99641.22;4212615;33;33906;-83
2024/02/13 09:31:13;;;;;;;1.75;1.10;;;;;;;11.95;53.46;99643.66;4203334;33;32014;-83
2024/02/13 09:33:41;;;;;;;2.45;1.12;;;;;;;12.15;52.18;99644.41;4215495;33;33416;-83
2024/02/13 09:36:11;;;;;;;0.20;0.20;;;;;;;12.37;51.68;99647.62;4227377;33;34520;-83
2024/02/13 09:38:41;;;;;;;0.68;0.68;;;;;;;12.49;50.92;99649.63;4224779;33;33799;-83
2024/02/13 09:41:10;;;;;;;1.20;0.98;;;;;;;12.36;51.86;99658.31;4203387;33;33093;-83
2024/02/13 09:43:38;;;;;;;0.55;0.55;;;;;;;12.41;51.58;99662.41;4212438;33;32572;-83
2024/02/13 09:46:16;;;;;;;1.87;0.98;;;;;;;12.51;51.08;99671.56;4202390;33;34024;-83
2024/02/13 09:48:47;;;;;;;1.00;0.55;;;;;;;12.72;51.18;99668.69;4224838;33;34655;-83
2024/02/13 09:51:18;;;;;;;0.17;0.17;;;;;;;13.05;50.64;99658.91;4235734;33;34125;-83
2024/02/13 09:53:47;;;;;;;0.30;0.30;;;;;;;12.76;49.92;99679.03;4222694;33;32102;-83
2024/02/13 09:56:17;;;;;;;0.57;0.57;;;;;;;12.65;49.46;99667.34;4211996;33;33954;-83
2024/02/13 09:58:48;;;;;;;1.40;0.57;;;;;;;12.97;48.88;99666.41;4238106;33;33984;-83
2024/02/13 10:01:16;;;;;;;0.20;0.20;;;;;;;12.73;48.59;99667.78;4225262;33;34479;-83
2024/02/13 10:03:44;;;;;;;0.10;0.10;;;;;;;12.74;49.69;99659.72;4224411;33;33259;-83
2024/02/13 10:06:13;;;;;;;0.03;0.03;;;;;;;12.91;48.87;99656.13;4216836;33;34243;-83
2024/02/13 10:08:41;;;;;;;0.15;0.15;;;;;;;13.11;48.80;99670.09;4238463;33;34870;-83
2024/02/13 10:11:14;;;;;;;1.08;0.60;;;;;;;13.54;47.22;99665.87;4211131;33;33904;-83
2024/02/13 10:13:42;;;;;;;2.08;1.50;;;;;;;13.55;47.67;99671.09;4238294;33;34134;-83
2024/02/13 10:16:28;;;;;;;1.15;0.93;;;;;;;13.40;47.60;99669.34;4217909;33;33021;-82
2024/02/13 10:19:01;;;;;;;0.15;0.15;;;;;;;13.30;48.11;99669.00;4224066;33;32925;-83
2024/02/13 10:21:30;;;;;;;0.98;0.75;;;;;;;13.43;47.81;99663.81;4218978;33;32631;-83
2024/02/13 10:24:05;;;;;;;0.40;0.40;;;;;;;13.44;47.53;99660.25;4238850;33;32853;-83
2024/02/13 10:26:34;;;;;;;3.33;1.05;;;;;;;13.33;48.38;99666.16;4225105;33;33851;-83
2024/02/13 10:29:03;;;;;;;1.98;1.37;;;;;;;13.43;48.49;99663.81;4197667;33;34486;-83
2024/02/13 10:31:34;;;;;;;0.62;0.62;;;;;;;13.64;47.67;99655.59;4201127;33;34618;-83
2024/02/13 10:34:04;;;;;;;1.37;0.98;;;;;;;13.91;47.85;99653.97;4224391;33;33510;-83
2024/02/13 10:36:32;;;;;;;3.10;1.95;;;;;;;13.87;48.14;99655.09;4198389;33;33685;-83
2024/02/13 10:39:08;;;;;;;0.75;0.75;;;;;;;14.03;47.75;99652.38;4223863;33;34016;-82
2024/02/13 10:41:45;;;;;;;0.65;0.65;;;;;;;13.78;47.85;99647.66;4213835;33;34218;-83
2024/02/13 10:44:20;;;;;;;2.83;1.27;;;;;;;13.96;48.11;99657.19;4216843;33;34104;-83
2024/02/13 10:46:55;;;;;;;2.45;1.83;;;;;;;13.64;49.84;99648.47;4214908;33;33286;-83
2024/02/13 10:49:43;;;;;;;2.60;0.90;;;;;;;14.09;48.23;99652.84;4202798;33;34798;-83
2024/02/13 10:52:12;;;;;;;2.78;0.82;;;;;;;14.09;48.25;99657.28;4226118;33;33885;-83
2024/02/13 10:54:46;;;;;;;0.08;0.08;;;;;;;14.19;47.79;99657.59;4223881;33;34613;-83
2024/02/13 10:57:16;;;;;;;1.48;1.37;;;;;;;14.14;48.11;99659.66;4224702;33;33951;-83
2024/02/13 10:59:47;;;;;;;2.47;2.28;;;;;;;13.97;48.76;99664.22;4219020;33;32314;-83
2024/02/13 11:02:20;;;;;;;0.45;0.45;;;;;;;14.40;47.00;99661.59;4202553;33;34793;-83
2024/02/13 11:04:48;;;;;;;0.40;0.40;;;;;;;14.23;47.63;99667.94;4221205;33;34400;-83
2024/02/13 11:07:17;;;;;;;1.45;1.35;;;;;;;13.81;48.60;99674.88;4230704;33;32964;-83
2024/02/13 11:09:45;;;;;;;1.05;1.00;;;;;;;14.25;47.91;99668.72;4190532;33;32747;-83
2024/02/13 11:12:13;;;;;;;1.35;1.25;;;;;;;14.20;48.33;99672.59;4214836;33;32870;-83
2024/02/13 11:14:41;;;;;;;0.73;0.40;;;;;;;14.53;47.60;99673.22;4194715;33;32795;-82
2024/02/13 11:17:12;;;;;;;2.47;1.45;;;;;;;14.15;48.37;99670.22;4192190;33;32934;-83
2024/02/13 11:20:06;;;;;;;0.10;0.10;;;;;;;14.37;47.94;99672.41;4222762;33;35586;-83
2024/02/13 11:23:02;;;;;;;0.68;0.62;;;;;;;14.38;47.71;99674.09;4196796;33;33134;-83
2024/02/13 11:25:34;;;;;;;1.15;1.05;;;;;;;14.09;49.32;99676.72;4223232;33;32787;-83
2024/02/13 11:28:06;;;;;;;0.60;0.60;;;;;;;14.24;48.67;99682.06;4204347;33;33712;-83
2024/02/13 11:30:37;;;;;;;0.57;0.57;;;;;;;14.75;47.41;99671.84;4212572;33;32640;-83
2024/02/13 11:33:06;;;;;;;1.33;1.23;;;;;;;14.43;47.60;99676.47;4213538;33;34891;-83
2024/02/13 11:35:46;;;;;;;0.95;0.85;;;;;;;13.97;48.86;99680.13;4224717;33;33363;-83
2024/02/13 11:38:19;;;;;;;1.15;0.98;;;;;;;14.43;47.42;99688.00;4202674;33;33849;-83
2024/02/13 11:40:54;;;;;;;0.52;0.52;;;;;;;14.03;48.76;99678.91;4213459;33;33005;-83
2024/02/13 11:43:27;;;;;;;0.10;0.10;;;;;;;14.02;48.64;99686.03;4203293;33;33791;-83
2024/02/13 11:46:00;;;;;;;1.33;0.68;;;;;;;14.02;47.83;99675.41;4212897;33;33470;-83
2024/02/13 11:48:28;;;;;;;0.47;0.30;;;;;;;13.80;48.69;99675.81;4218992;33;33442;-83
2024/02/13 11:51:02;;;;;;;0.45;0.45;;;;;;;14.28;46.53;99675.63;4211613;33;33025;-84